createdAt,value
2023-03-04T00:03:02.325Z,2.30
2023-03-04T00:07:04.801Z,2.34
2023-03-04T00:10:40.500Z,2.44
2023-03-04T00:14:30.594Z,2.49
2023-03-04T00:18:13.676Z,2.50
2023-03-04T00:22:03.655Z,2.55
2023-03-04T00:25:31.953Z,2.58
2023-03-04T00:29:41.280Z,2.53
2023-03-04T00:33:35.761Z,2.61
2023-03-04T00:37:41.111Z,2.61
2023-03-04T00:41:32.531Z,2.61
2023-03-04T00:45:03.977Z,2.69
2023-03-04T00:49:00.963Z,2.75
2023-03-04T00:57:04.824Z,2.70
2023-03-04T01:00:53.450Z,2.69
2023-03-04T01:04:41.944Z,2.72
2023-03-04T01:08:50.967Z,2.68
2023-03-04T01:12:48.790Z,2.69
2023-03-04T01:17:12.815Z,2.58
2023-03-04T01:21:23.435Z,2.61
2023-03-04T01:25:16.549Z,2.65
2023-03-04T01:29:30.359Z,2.62
2023-03-04T01:33:36.369Z,2.62
2023-03-04T01:37:47.156Z,2.60
2023-03-04T01:42:00.968Z,2.63
2023-03-04T01:46:30.091Z,2.60
2023-03-04T01:50:43.337Z,2.58
2023-03-04T01:54:54.733Z,2.59
2023-03-04T01:59:22.776Z,2.56
2023-03-04T02:03:51.771Z,2.58
2023-03-04T02:08:10.713Z,2.54
2023-03-04T02:12:00.732Z,2.61
2023-03-04T02:15:52.551Z,2.53
2023-03-04T02:20:07.067Z,2.47
2023-03-04T02:23:59.042Z,2.48
2023-03-04T02:27:48.666Z,2.52
2023-03-04T02:31:57.860Z,2.48
2023-03-04T02:35:45.676Z,2.49
2023-03-04T02:39:39.671Z,2.47
2023-03-04T02:43:50.521Z,2.52
2023-03-04T02:47:19.739Z,2.50
2023-03-04T02:51:11.542Z,2.50
2023-03-04T02:55:18.449Z,2.49
2023-03-04T02:59:53.369Z,2.51
2023-03-04T03:08:09.643Z,2.51
2023-03-04T03:12:41.143Z,2.54
2023-03-04T03:16:46.302Z,2.55
2023-03-04T03:20:58.054Z,2.60
2023-03-04T03:25:08.861Z,2.58
2023-03-04T03:29:03.426Z,2.62
2023-03-04T03:33:14.135Z,2.62
2023-03-04T03:37:09.573Z,2.73
2023-03-04T03:45:19.007Z,2.75
2023-03-04T03:49:09.962Z,2.80
2023-03-04T03:53:21.079Z,2.80
2023-03-04T03:57:10.684Z,2.82
2023-03-04T04:01:01.775Z,2.93
2023-03-04T04:09:02.849Z,2.88
2023-03-04T04:12:52.532Z,2.98
2023-03-04T04:16:42.402Z,2.94
2023-03-04T04:24:53.904Z,2.98
2023-03-04T04:29:04.748Z,3.04
2023-03-04T04:32:46.637Z,3.09
2023-03-04T04:36:58.268Z,3.10
2023-03-04T04:41:27.525Z,3.01
2023-03-04T04:45:56.865Z,3.07
2023-03-04T04:50:25.907Z,3.09
2023-03-04T04:54:55.673Z,3.09
2023-03-04T04:59:26.861Z,3.16
2023-03-04T05:03:55.823Z,3.15
2023-03-04T05:08:02.988Z,3.12
2023-03-04T05:11:53.379Z,3.13
2023-03-04T05:15:43.460Z,3.12
2023-03-04T05:19:22.817Z,3.07
2023-03-04T05:23:13.195Z,3.11
2023-03-04T05:27:24.500Z,3.03
2023-03-04T05:31:22.305Z,3.07
2023-03-04T05:35:15.912Z,3.05
2023-03-04T05:39:12.664Z,3.02
2023-03-04T05:43:15.338Z,3.02
2023-03-04T05:47:09.640Z,3.10
2023-03-04T05:51:00.875Z,3.08
2023-03-04T05:59:35.658Z,3.10
2023-03-04T06:03:41.731Z,3.08
2023-03-04T06:07:52.188Z,3.12
2023-03-04T06:11:41.151Z,3.12
2023-03-04T06:15:45.545Z,3.09
2023-03-04T06:20:17.603Z,3.12
2023-03-04T06:24:46.916Z,3.11
2023-03-04T06:28:56.443Z,3.12
2023-03-04T06:33:07.152Z,3.15
2023-03-04T06:37:01.856Z,3.21
2023-03-04T06:40:51.612Z,3.21
2023-03-04T06:44:35.523Z,3.27
2023-03-04T06:48:46.442Z,3.18
2023-03-04T06:52:36.418Z,3.21
2023-03-04T06:56:21.701Z,3.27
2023-03-04T07:00:12.207Z,3.35
2023-03-04T07:04:05.081Z,3.27
2023-03-04T07:07:54.465Z,3.30
2023-03-04T07:12:03.744Z,3.43
2023-03-04T07:15:54.694Z,3.47
2023-03-04T07:20:00.751Z,3.44
2023-03-04T07:23:53.247Z,3.59
2023-03-04T07:27:47.139Z,3.65
2023-03-04T07:32:12.450Z,3.73
2023-03-04T07:36:24.954Z,3.76
2023-03-04T07:40:54.941Z,3.63
2023-03-04T07:45:28.372Z,3.72
2023-03-04T07:54:40.834Z,3.82
2023-03-04T07:59:10.239Z,3.84
2023-03-04T08:03:42.245Z,3.84
2023-03-04T08:08:17.486Z,3.94
2023-03-04T08:12:50.827Z,4.12
2023-03-04T08:17:22.028Z,4.15
2023-03-04T08:21:43.527Z,4.24
2023-03-04T08:25:33.015Z,4.34
2023-03-04T08:29:42.936Z,4.33
2023-03-04T08:33:54.396Z,4.42
2023-03-04T08:38:21.939Z,4.62
2023-03-04T08:42:54.795Z,4.61
2023-03-04T08:47:30.630Z,4.74
2023-03-04T08:52:03.181Z,4.67
2023-03-04T08:56:33.944Z,4.72
2023-03-04T09:01:03.890Z,4.81
2023-03-04T09:15:44.634Z,4.79
2023-03-04T09:19:40.755Z,4.97
2023-03-04T09:23:23.141Z,5.04
2023-03-04T09:27:18.709Z,5.14
2023-03-04T09:31:15.993Z,5.17
2023-03-04T09:35:05.307Z,5.37
2023-03-04T09:38:59.235Z,5.53
2023-03-04T09:42:54.301Z,5.69
2023-03-04T09:50:59.439Z,6.01
2023-03-04T09:54:51.001Z,6.08
2023-03-04T09:58:55.409Z,6.22
2023-03-04T10:07:01.572Z,6.17
2023-03-04T10:10:44.376Z,6.25
2023-03-04T10:14:36.972Z,6.28
2023-03-04T10:18:28.725Z,6.41
2023-03-04T10:23:24.336Z,6.36
2023-03-04T10:27:32.314Z,6.16
2023-03-04T10:31:38.534Z,6.16
2023-03-04T10:35:26.596Z,6.22
2023-03-04T10:39:07.427Z,6.48
2023-03-04T10:42:55.789Z,6.74
2023-03-04T10:51:30.386Z,7.31
2023-03-04T11:00:32.180Z,7.28
2023-03-04T11:04:32.657Z,7.21
2023-03-04T11:08:25.992Z,7.09
2023-03-04T11:12:23.280Z,7.25
2023-03-04T11:16:29.179Z,7.07
2023-03-04T11:24:43.770Z,6.57
2023-03-04T11:28:32.300Z,6.71
2023-03-04T11:32:31.204Z,6.94
2023-03-04T11:36:27.641Z,7.13
2023-03-04T11:40:47.433Z,7.01
2023-03-04T11:44:40.298Z,6.76
2023-03-04T11:53:32.959Z,6.64
2023-03-04T11:58:14.059Z,6.83
2023-03-04T12:02:12.103Z,7.11
2023-03-04T12:06:54.172Z,7.64
2023-03-04T12:11:34.485Z,7.69
2023-03-04T12:16:01.735Z,7.61
2023-03-04T12:20:29.359Z,8.10
2023-03-04T12:40:07.176Z,8.04
2023-03-04T12:44:15.876Z,8.27
2023-03-04T12:47:41.138Z,8.34
2023-03-04T12:53:29.663Z,8.55
2023-03-04T12:56:44.528Z,8.44
2023-03-04T13:01:29.585Z,8.37
2023-03-04T13:06:16.498Z,7.86
2023-03-04T13:10:50.520Z,7.61
2023-03-04T13:15:21.981Z,7.45
2023-03-04T13:19:33.015Z,7.41
2023-03-04T13:24:12.073Z,7.34
2023-03-04T13:27:59.410Z,7.30
2023-03-04T13:31:35.219Z,7.21
2023-03-04T13:35:47.150Z,6.98
2023-03-04T13:39:40.766Z,6.97
2023-03-04T13:44:04.525Z,6.93
2023-03-04T13:52:05.771Z,6.80
2023-03-04T13:56:38.522Z,6.65
2023-03-04T14:00:56.754Z,6.70
2023-03-04T14:04:39.166Z,5.90
2023-03-04T14:08:28.953Z,5.33
2023-03-04T14:12:12.521Z,5.17
2023-03-04T14:16:06.212Z,5.06
2023-03-04T14:20:06.209Z,4.90
2023-03-04T14:24:10.893Z,4.86
2023-03-04T14:28:25.599Z,4.75
2023-03-04T14:32:13.031Z,4.91
2023-03-04T14:36:06.804Z,4.98
2023-03-04T14:39:58.980Z,5.07
2023-03-04T14:43:39.828Z,5.26
2023-03-04T14:47:36.373Z,5.23
2023-03-04T14:51:32.124Z,5.43
2023-03-04T14:55:34.286Z,5.33
2023-03-04T15:01:29.952Z,5.28
2023-03-04T15:04:04.948Z,5.36
2023-03-04T15:12:06.546Z,5.31
2023-03-04T15:16:23.690Z,5.36
2023-03-04T15:20:25.560Z,5.39
2023-03-04T15:24:15.088Z,5.45
2023-03-04T15:28:03.988Z,5.36
2023-03-04T15:31:50.806Z,5.25
2023-03-04T15:35:33.690Z,5.14
2023-03-04T15:39:38.643Z,5.18
2023-03-04T15:44:08.491Z,5.26
2023-03-04T15:48:37.118Z,5.03
2023-03-04T15:52:46.182Z,5.05
2023-03-04T15:57:20.152Z,4.98
2023-03-04T16:02:12.213Z,5.01
2023-03-04T16:05:40.243Z,4.95
2023-03-04T16:16:36.882Z,4.94
2023-03-04T16:19:46.621Z,4.83
2023-03-04T16:23:08.346Z,4.90
2023-03-04T16:24:57.024Z,4.64
2023-03-04T16:29:12.522Z,4.57
2023-03-04T16:33:21.124Z,4.42
2023-03-04T16:37:31.387Z,4.41
2023-03-04T16:41:39.781Z,4.30
2023-03-04T16:45:57.870Z,4.23
2023-03-04T16:50:28.189Z,4.09
2023-03-04T16:55:06.367Z,3.95
2023-03-04T16:59:37.657Z,3.77
2023-03-04T17:04:06.367Z,3.69
2023-03-04T17:08:36.857Z,3.63
2023-03-04T17:13:06.146Z,3.50
2023-03-04T17:17:39.308Z,3.35
2023-03-04T17:22:09.756Z,3.21
2023-03-04T17:26:43.531Z,3.10
2023-03-04T17:31:16.509Z,2.93
2023-03-04T17:35:45.797Z,2.82
2023-03-04T17:40:14.690Z,2.72
2023-03-04T17:44:44.932Z,2.61
2023-03-04T17:49:22.180Z,2.51
2023-03-04T17:53:54.063Z,2.49
2023-03-04T17:58:04.995Z,2.50
2023-03-04T18:02:34.977Z,2.42
2023-03-04T18:07:07.149Z,2.28
2023-03-04T18:11:37.794Z,2.17
2023-03-04T18:16:07.752Z,2.03
2023-03-04T18:20:35.753Z,2.01
2023-03-04T18:25:06.408Z,1.85
2023-03-04T18:29:39.856Z,1.81
2023-03-04T18:34:11.022Z,1.87
2023-03-04T18:38:41.593Z,1.84
2023-03-04T18:43:11.870Z,1.68
2023-03-04T18:47:44.269Z,1.66
2023-03-04T18:52:13.148Z,1.68
2023-03-04T18:56:45.503Z,1.66
2023-03-04T19:01:25.956Z,1.50
2023-03-04T19:06:04.942Z,1.47
2023-03-04T19:13:55.420Z,1.42
2023-03-04T19:15:17.974Z,1.29
2023-03-04T19:19:50.830Z,1.30
2023-03-04T19:24:31.429Z,1.18
2023-03-04T19:29:04.076Z,1.05
2023-03-04T19:33:42.387Z,0.91
2023-03-04T19:42:42.281Z,0.62
2023-03-04T19:46:34.274Z,0.50
2023-03-04T19:50:07.062Z,0.49
2023-03-04T19:53:56.059Z,0.52
2023-03-04T19:57:44.514Z,0.37
2023-03-04T20:01:33.517Z,0.26
2023-03-04T20:05:21.204Z,0.15
2023-03-04T20:09:04.989Z,0.04
2023-03-04T20:12:53.170Z,-0.05
2023-03-04T20:16:26.350Z,-0.12
2023-03-04T20:20:04.832Z,-0.18
2023-03-04T20:23:37.013Z,-0.37
2023-03-04T20:27:25.196Z,-0.43
2023-03-04T20:31:04.991Z,-0.48
2023-03-04T20:34:30.113Z,-0.57
2023-03-04T20:37:44.181Z,-0.67
2023-03-04T20:41:16.836Z,-0.77
2023-03-04T20:45:05.363Z,-0.83
2023-03-04T20:48:54.115Z,-0.92
2023-03-04T20:52:26.188Z,-0.99
2023-03-04T20:56:19.731Z,-1.02
2023-03-04T21:00:01.385Z,-1.08
2023-03-04T21:03:26.921Z,-1.13
2023-03-04T21:06:59.491Z,-1.13
2023-03-04T21:10:46.983Z,-1.13
2023-03-04T21:14:14.112Z,-1.14
2023-03-04T21:18:02.337Z,-1.12
2023-03-04T21:21:33.806Z,-1.21
2023-03-04T21:25:12.535Z,-1.24
2023-03-04T21:28:43.154Z,-1.37
2023-03-04T21:32:34.361Z,-1.51
2023-03-04T21:36:23.173Z,-1.65
2023-03-04T21:40:22.681Z,-1.72
2023-03-04T21:44:18.168Z,-1.74
2023-03-04T21:48:17.439Z,-1.69
2023-03-04T21:51:52.731Z,-1.72
2023-03-04T21:55:37.898Z,-1.77
2023-03-04T21:59:28.255Z,-1.83
2023-03-04T22:03:16.299Z,-1.90
2023-03-04T22:06:50.040Z,-2.00
2023-03-04T22:10:31.918Z,-2.01
2023-03-04T22:14:20.199Z,-2.02
2023-03-04T22:17:50.501Z,-2.04
2023-03-04T22:21:26.964Z,-2.05
2023-03-04T22:25:14.788Z,-2.10
2023-03-04T22:29:02.537Z,-2.17
2023-03-04T22:32:50.465Z,-2.22
2023-03-04T22:36:41.159Z,-2.28
2023-03-04T22:40:17.993Z,-2.36
2023-03-04T22:43:58.209Z,-2.36
2023-03-04T22:47:46.219Z,-2.38
2023-03-04T22:51:34.052Z,-2.27
2023-03-04T22:55:15.332Z,-2.23
2023-03-04T22:58:56.560Z,-2.16
2023-03-04T23:02:47.363Z,-2.08
2023-03-04T23:06:35.231Z,-2.00
2023-03-04T23:10:22.654Z,-1.90
2023-03-04T23:13:56.415Z,-1.82
2023-03-04T23:17:36.667Z,-1.74
2023-03-04T23:21:24.220Z,-1.68
2023-03-04T23:25:04.567Z,-1.61
2023-03-04T23:28:44.896Z,-1.51
2023-03-04T23:32:25.145Z,-1.48
2023-03-04T23:36:05.920Z,-1.44
2023-03-04T23:39:31.730Z,-1.39
2023-03-04T23:43:19.248Z,-1.34
2023-03-04T23:46:57.872Z,-1.28
2023-03-04T23:50:31.253Z,-1.24
2023-03-04T23:53:54.405Z,-1.21
2023-03-04T23:57:34.732Z,-1.20
